createdAt,value
2019-05-01T00:02:02.907Z,8.50
2019-05-01T00:04:47.262Z,8.40
2019-05-01T00:07:21.440Z,8.30
2019-05-01T00:09:48.756Z,8.30
2019-05-01T00:12:16.252Z,8.20
2019-05-01T00:14:43.949Z,8.20
2019-05-01T00:17:11.320Z,8.20
2019-05-01T00:19:38.575Z,8.20
2019-05-01T00:22:05.812Z,8.10
2019-05-01T00:24:33.107Z,8.10
2019-05-01T00:27:00.439Z,8.00
2019-05-01T00:29:27.743Z,7.90
2019-05-01T00:31:54.965Z,7.80
2019-05-01T00:34:22.275Z,7.80
2019-05-01T00:36:49.547Z,7.70
2019-05-01T00:39:18.292Z,7.70
2019-05-01T00:41:45.564Z,7.70
2019-05-01T00:44:12.798Z,7.70
2019-05-01T00:49:07.281Z,7.80
2019-05-01T00:51:34.551Z,7.80
2019-05-01T00:54:01.840Z,7.80
2019-05-01T00:56:43.328Z,7.70
2019-05-01T00:59:30.126Z,7.70
2019-05-01T01:02:19.902Z,7.70
2019-05-01T01:04:47.131Z,7.70
2019-05-01T01:07:14.515Z,7.60
2019-05-01T01:09:41.750Z,7.60
2019-05-01T01:12:08.993Z,7.50
2019-05-01T01:14:36.416Z,7.50
2019-05-01T01:17:03.640Z,7.40
2019-05-01T01:19:30.958Z,7.40
2019-05-01T01:21:58.291Z,7.30
2019-05-01T01:24:25.648Z,7.30
2019-05-01T01:26:53.187Z,7.30
2019-05-01T01:29:20.619Z,7.20
2019-05-01T01:31:47.868Z,7.20
2019-05-01T01:34:15.113Z,7.30
2019-05-01T01:36:42.370Z,7.30
2019-05-01T01:39:09.633Z,7.30
2019-05-01T01:41:36.940Z,7.30
2019-05-01T01:44:36.943Z,7.40
2019-05-01T01:47:04.313Z,7.30
2019-05-01T01:49:31.924Z,7.30
2019-05-01T01:51:59.633Z,7.30
2019-05-01T01:54:27.380Z,7.30
2019-05-01T01:56:55.145Z,7.20
2019-05-01T01:59:23.381Z,7.10
2019-05-01T02:02:13.098Z,7.10
2019-05-01T02:05:05.879Z,7.00
2019-05-01T02:07:33.559Z,7.00
2019-05-01T02:10:01.003Z,7.00
2019-05-01T02:12:28.496Z,7.00
2019-05-01T02:14:55.739Z,7.00
2019-05-01T02:17:23.088Z,7.00
2019-05-01T02:19:50.341Z,7.00
2019-05-01T02:22:18.738Z,7.00
2019-05-01T02:24:45.983Z,7.00
2019-05-01T02:27:18.681Z,6.90
2019-05-01T02:29:50.611Z,6.90
2019-05-01T02:32:20.560Z,6.90
2019-05-01T02:34:48.950Z,6.90
2019-05-01T02:37:16.977Z,6.90
2019-05-01T02:39:46.318Z,6.80
2019-05-01T02:42:14.340Z,6.70
2019-05-01T02:44:48.411Z,6.70
2019-05-01T02:47:22.389Z,6.60
2019-05-01T02:49:57.242Z,6.50
2019-05-01T02:52:28.526Z,6.40
2019-05-01T02:54:59.588Z,6.40
2019-05-01T02:57:26.450Z,6.40
2019-05-01T02:59:55.875Z,6.40
2019-05-01T03:02:25.997Z,6.30
2019-05-01T03:04:54.833Z,6.40
2019-05-01T03:07:24.803Z,6.50
2019-05-01T03:09:52.245Z,6.50
2019-05-01T03:12:22.609Z,6.40
2019-05-01T03:14:52.684Z,6.40
2019-05-01T03:17:37.982Z,6.30
2019-05-01T03:20:33.921Z,6.40
2019-05-01T03:23:17.954Z,6.40
2019-05-01T03:25:46.096Z,6.40
2019-05-01T03:28:13.669Z,6.40
2019-05-01T03:30:41.137Z,6.40
2019-05-01T03:33:08.435Z,6.40
2019-05-01T03:35:35.891Z,6.30
2019-05-01T03:38:03.306Z,6.30
2019-05-01T03:40:31.348Z,6.30
2019-05-01T03:42:59.940Z,6.20
2019-05-01T03:45:27.680Z,6.20
2019-05-01T03:47:55.486Z,6.20
2019-05-01T03:50:23.128Z,6.20
2019-05-01T03:52:50.589Z,6.20
2019-05-01T03:55:18.259Z,6.20
2019-05-01T03:57:45.919Z,6.20
2019-05-01T04:00:17.588Z,6.10
2019-05-01T04:02:51.101Z,6.10
2019-05-01T04:05:18.360Z,6.10
2019-05-01T04:07:46.305Z,6.10
2019-05-01T04:10:13.581Z,6.10
2019-05-01T04:12:41.318Z,6.00
2019-05-01T04:15:08.786Z,6.00
2019-05-01T04:17:44.525Z,5.90
2019-05-01T04:20:11.867Z,5.80
2019-05-01T04:22:39.263Z,5.90
2019-05-01T04:25:07.496Z,5.90
2019-05-01T04:27:37.220Z,5.90
2019-05-01T04:30:26.987Z,5.80
2019-05-01T04:32:57.280Z,5.70
2019-05-01T04:35:48.421Z,5.70
2019-05-01T04:38:16.139Z,5.70
2019-05-01T04:40:43.665Z,5.80
2019-05-01T04:43:11.013Z,5.80
2019-05-01T04:45:39.161Z,5.90
2019-05-01T04:48:06.989Z,5.90
2019-05-01T04:50:34.541Z,5.90
2019-05-01T04:53:01.808Z,5.90
2019-05-01T04:55:30.551Z,5.90
2019-05-01T04:57:57.777Z,5.90
2019-05-01T05:00:25.022Z,6.00
2019-05-01T05:03:05.102Z,6.10
2019-05-01T05:05:30.523Z,6.30
2019-05-01T05:07:57.803Z,6.40
2019-05-01T05:10:25.801Z,6.60
2019-05-01T05:13:08.375Z,6.80
2019-05-01T05:15:50.957Z,7.00
2019-05-01T05:18:18.546Z,7.20
2019-05-01T05:20:45.833Z,7.30
2019-05-01T05:23:13.307Z,7.50
2019-05-01T05:25:40.902Z,7.60
2019-05-01T05:28:09.015Z,7.80
2019-05-01T05:30:36.556Z,7.90
2019-05-01T05:33:17.676Z,8.20
2019-05-01T05:35:39.057Z,8.40
2019-05-01T05:38:15.608Z,8.70
2019-05-01T05:40:43.958Z,9.00
2019-05-01T05:43:11.422Z,9.20
2019-05-01T05:45:39.211Z,9.40
2019-05-01T05:48:06.743Z,9.50
2019-05-01T05:50:43.692Z,9.60
2019-05-01T05:53:15.392Z,9.60
2019-05-01T05:55:48.167Z,9.60
2019-05-01T05:58:24.712Z,9.60
2019-05-01T06:01:21.284Z,9.60
2019-05-01T06:04:11.506Z,9.80
2019-05-01T06:06:47.368Z,10.20
2019-05-01T06:09:16.620Z,10.50
2019-05-01T06:12:05.027Z,10.50
2019-05-01T06:14:50.989Z,10.40
2019-05-01T06:17:36.403Z,10.40
2019-05-01T06:20:12.445Z,10.20
2019-05-01T06:22:58.892Z,10.70
2019-05-01T06:25:30.405Z,10.60
2019-05-01T06:27:57.773Z,10.70
2019-05-01T06:30:24.996Z,10.90
2019-05-01T06:32:52.707Z,11.10
2019-05-01T06:35:20.119Z,11.10
2019-05-01T06:38:11.429Z,11.30
2019-05-01T06:40:43.416Z,11.50
2019-05-01T06:43:43.685Z,11.70
2019-05-01T06:46:36.318Z,12.10
2019-05-01T06:49:15.291Z,12.30
2019-05-01T06:51:53.230Z,12.80
2019-05-01T06:54:18.334Z,13.10
2019-05-01T06:56:46.745Z,13.10
2019-05-01T06:59:15.240Z,13.20
2019-05-01T07:01:43.194Z,12.90
2019-05-01T07:04:10.563Z,13.10
2019-05-01T07:06:38.065Z,13.30
2019-05-01T07:09:06.906Z,13.60
2019-05-01T07:11:36.369Z,13.60
2019-05-01T07:14:03.767Z,14.00
2019-05-01T07:16:33.125Z,14.20
2019-05-01T07:19:05.748Z,13.90
2019-05-01T07:21:32.775Z,14.00
2019-05-01T07:24:00.227Z,14.30
2019-05-01T07:26:27.442Z,14.60
2019-05-01T07:28:57.541Z,15.00
2019-05-01T07:31:26.119Z,15.40
2019-05-01T07:33:54.113Z,15.90
2019-05-01T07:36:21.473Z,16.30
2019-05-01T07:38:49.065Z,16.60
2019-05-01T07:41:16.350Z,16.60
2019-05-01T07:44:02.347Z,16.50
2019-05-01T07:46:38.511Z,16.50
2019-05-01T07:49:06.259Z,16.70
2019-05-01T07:51:37.717Z,17.10
2019-05-01T07:54:03.994Z,17.20
2019-05-01T07:56:32.871Z,17.60
2019-05-01T07:59:00.346Z,18.00
2019-05-01T08:01:54.479Z,18.20
2019-05-01T08:06:52.013Z,18.30
2019-05-01T08:09:17.693Z,18.40
2019-05-01T08:11:45.527Z,18.20
2019-05-01T08:14:16.688Z,18.50
2019-05-01T08:16:43.610Z,18.80
2019-05-01T08:19:27.962Z,19.00
2019-05-01T08:22:12.724Z,19.10
2019-05-01T08:24:40.002Z,19.10
2019-05-01T08:27:15.592Z,19.10
2019-05-01T08:30:17.372Z,18.90
2019-05-01T08:32:54.137Z,19.00
2019-05-01T08:35:22.743Z,19.20
2019-05-01T08:37:53.859Z,19.60
2019-05-01T08:42:48.839Z,19.90
2019-05-01T08:45:40.741Z,19.70
2019-05-01T08:48:35.772Z,19.60
2019-05-01T08:51:01.558Z,19.60
2019-05-01T08:53:29.019Z,19.80
2019-05-01T08:55:56.379Z,19.90
2019-05-01T08:58:23.673Z,20.10
2019-05-01T09:00:50.941Z,20.20
2019-05-01T09:03:19.016Z,20.30
2019-05-01T09:08:14.650Z,20.70
2019-05-01T09:10:41.917Z,20.50
2019-05-01T09:13:09.189Z,20.60
2019-05-01T09:15:36.598Z,20.80
2019-05-01T09:18:04.132Z,21.00
2019-05-01T09:20:32.654Z,21.00
2019-05-01T09:22:59.971Z,21.30
2019-05-01T09:28:20.513Z,21.50
2019-05-01T09:30:53.095Z,21.90
2019-05-01T09:33:20.460Z,22.00
2019-05-01T09:38:15.080Z,22.00
2019-05-01T09:40:42.357Z,22.10
2019-05-01T09:43:09.614Z,21.70
2019-05-01T09:45:36.881Z,21.60
2019-05-01T09:48:04.723Z,22.00
2019-05-01T09:50:33.962Z,22.30
2019-05-01T09:53:11.499Z,22.50
2019-05-01T09:55:46.572Z,22.70
2019-05-01T09:58:14.043Z,22.70
2019-05-01T10:00:41.449Z,23.10
2019-05-01T10:03:08.508Z,23.10
2019-05-01T10:05:38.085Z,23.20
2019-05-01T10:10:32.927Z,22.70
2019-05-01T10:13:00.293Z,22.60
2019-05-01T10:15:27.537Z,22.90
2019-05-01T10:17:54.802Z,23.10
2019-05-01T10:20:22.094Z,23.20
2019-05-01T10:22:49.358Z,23.50
2019-05-01T10:25:16.506Z,23.80
2019-05-01T10:27:48.956Z,23.80
2019-05-01T10:30:36.219Z,24.10
2019-05-01T10:33:06.053Z,24.10
2019-05-01T10:35:58.190Z,24.30
2019-05-01T10:38:25.569Z,24.10
2019-05-01T10:40:52.843Z,23.90
2019-05-01T10:43:20.146Z,23.90
2019-05-01T10:45:47.504Z,23.80
2019-05-01T10:48:14.754Z,24.10
2019-05-01T10:53:09.298Z,24.80
2019-05-01T10:55:36.620Z,25.00
2019-05-01T10:58:04.076Z,25.10
2019-05-01T11:00:31.412Z,25.00
2019-05-01T11:02:58.708Z,24.80
2019-05-01T11:05:25.976Z,24.80
2019-05-01T11:07:53.251Z,24.60
2019-05-01T11:10:20.560Z,24.60
2019-05-01T11:12:47.804Z,24.60
2019-05-01T11:15:15.223Z,24.60
2019-05-01T11:17:42.475Z,24.40
2019-05-01T11:20:09.820Z,24.30
2019-05-01T11:22:37.142Z,24.50
2019-05-01T11:25:05.170Z,24.70
2019-05-01T11:27:32.428Z,24.80
2019-05-01T11:29:59.760Z,24.50
2019-05-01T11:32:46.606Z,24.20
2019-05-01T11:35:36.319Z,24.40
2019-05-01T11:38:28.787Z,24.20
2019-05-01T11:41:00.503Z,24.10
2019-05-01T11:43:27.744Z,24.10
2019-05-01T11:45:55.029Z,24.30
2019-05-01T11:48:25.011Z,24.40
2019-05-01T11:50:51.484Z,24.70
2019-05-01T11:53:18.742Z,24.70
2019-05-01T11:55:45.877Z,24.80
2019-05-01T11:58:13.127Z,24.80
2019-05-01T12:00:40.466Z,25.10
2019-05-01T12:03:07.852Z,25.10
2019-05-01T12:05:35.000Z,25.20
2019-05-01T12:08:02.181Z,25.20
2019-05-01T12:10:29.350Z,24.70
2019-05-01T12:12:57.174Z,24.30
2019-05-01T12:15:24.555Z,24.30
2019-05-01T12:17:51.819Z,24.00
2019-05-01T12:20:20.955Z,23.60
2019-05-01T12:22:51.201Z,23.70
2019-05-01T12:25:17.624Z,23.90
2019-05-01T12:27:44.909Z,24.40
2019-05-01T12:30:14.106Z,24.20
2019-05-01T12:32:41.480Z,23.90
2019-05-01T12:35:09.048Z,23.80
2019-05-01T12:37:41.675Z,23.80
2019-05-01T12:40:10.833Z,23.90
2019-05-01T12:42:38.220Z,23.80
2019-05-01T12:45:06.465Z,24.20
2019-05-01T12:47:39.098Z,24.20
2019-05-01T12:50:07.284Z,24.20
2019-05-01T12:52:52.995Z,24.30
2019-05-01T12:55:28.959Z,24.50
2019-05-01T12:57:56.523Z,24.40
2019-05-01T13:00:38.646Z,24.30
2019-05-01T13:03:05.987Z,24.30
2019-05-01T13:05:33.404Z,24.30
2019-05-01T13:08:00.983Z,24.50
2019-05-01T13:10:28.335Z,24.70
2019-05-01T13:12:55.585Z,24.60
2019-05-01T13:15:22.960Z,24.50
2019-05-01T13:17:50.303Z,24.80
2019-05-01T13:20:17.601Z,24.70
2019-05-01T13:22:44.836Z,24.40
2019-05-01T13:25:12.544Z,24.80
2019-05-01T13:27:51.984Z,24.90
2019-05-01T13:30:31.612Z,25.10
2019-05-01T13:32:58.948Z,24.80
2019-05-01T13:35:26.198Z,24.60
2019-05-01T13:37:53.471Z,24.50
2019-05-01T13:40:20.920Z,24.50
2019-05-01T13:42:48.432Z,24.60
2019-05-01T13:45:17.356Z,24.70
2019-05-01T13:47:44.668Z,24.40
2019-05-01T13:50:12.572Z,24.10
2019-05-01T13:52:39.812Z,24.10
2019-05-01T13:55:07.914Z,24.20
2019-05-01T13:57:35.004Z,24.40
2019-05-01T14:00:02.516Z,24.30
2019-05-01T14:02:29.797Z,24.20
2019-05-01T14:04:57.397Z,24.30
2019-05-01T14:07:24.835Z,24.20
2019-05-01T14:09:52.243Z,24.10
2019-05-01T14:12:19.523Z,24.10
2019-05-01T14:14:46.834Z,24.30
2019-05-01T14:17:14.140Z,24.50
2019-05-01T14:19:44.100Z,24.50
2019-05-01T14:22:24.511Z,24.40
2019-05-01T14:24:54.968Z,24.20
2019-05-01T14:27:22.244Z,24.00
2019-05-01T14:29:49.527Z,23.80
2019-05-01T14:32:17.073Z,24.00
2019-05-01T14:34:44.311Z,23.90
2019-05-01T14:37:11.708Z,23.90
2019-05-01T14:39:38.983Z,24.00
2019-05-01T14:42:06.240Z,23.70
2019-05-01T14:44:37.079Z,23.90
2019-05-01T14:49:30.078Z,24.00
2019-05-01T14:51:57.359Z,24.00
2019-05-01T14:54:24.745Z,23.80
2019-05-01T14:56:52.001Z,23.80
2019-05-01T14:59:19.441Z,23.60
2019-05-01T15:01:47.345Z,23.50
2019-05-01T15:04:15.045Z,23.40
2019-05-01T15:06:42.320Z,23.20
2019-05-01T15:11:37.855Z,23.50
2019-05-01T15:14:36.849Z,23.40
2019-05-01T15:17:22.171Z,23.40
2019-05-01T15:19:54.840Z,23.50
2019-05-01T15:22:22.208Z,23.70
2019-05-01T15:24:49.497Z,23.90
2019-05-01T15:27:16.799Z,23.90
2019-05-01T15:29:44.036Z,23.70
2019-05-01T15:32:11.658Z,23.60
2019-05-01T15:34:38.928Z,23.40
2019-05-01T15:37:06.256Z,23.40
2019-05-01T15:39:47.971Z,23.60
2019-05-01T15:42:25.574Z,23.80
2019-05-01T15:44:52.826Z,23.70
2019-05-01T15:47:20.116Z,23.60
2019-05-01T15:49:47.444Z,23.50
2019-05-01T15:52:15.104Z,23.40
2019-05-01T15:54:42.236Z,23.40
2019-05-01T15:57:09.466Z,23.40
2019-05-01T15:59:36.783Z,23.40
2019-05-01T16:02:04.070Z,23.50
2019-05-01T16:04:31.366Z,23.80
2019-05-01T16:06:58.657Z,23.80
2019-05-01T16:09:26.188Z,23.80
2019-05-01T16:12:12.922Z,23.60
2019-05-01T16:14:43.638Z,23.40
2019-05-01T16:17:10.414Z,23.50
2019-05-01T16:19:37.936Z,23.30
2019-05-01T16:22:05.162Z,23.40
2019-05-01T16:24:32.295Z,23.10
2019-05-01T16:26:59.663Z,22.80
2019-05-01T16:29:26.928Z,22.70
2019-05-01T16:31:54.277Z,22.60
2019-05-01T16:34:21.598Z,22.70
2019-05-01T16:36:48.864Z,22.50
2019-05-01T16:39:50.870Z,22.60
2019-05-01T16:42:30.245Z,22.90
2019-05-01T16:44:57.528Z,22.70
2019-05-01T16:47:24.772Z,22.70
2019-05-01T16:49:52.085Z,22.70
2019-05-01T16:52:22.118Z,22.60
2019-05-01T16:54:58.986Z,22.50
2019-05-01T16:57:18.535Z,22.70
2019-05-01T16:59:45.960Z,22.50
2019-05-01T17:02:35.471Z,22.40
2019-05-01T17:05:24.450Z,22.20
2019-05-01T17:08:14.236Z,22.20
2019-05-01T17:10:44.272Z,22.10
2019-05-01T17:13:11.611Z,21.90
2019-05-01T17:15:42.651Z,22.00
2019-05-01T17:18:10.112Z,22.00
2019-05-01T17:20:37.452Z,21.90
2019-05-01T17:23:05.693Z,21.70
2019-05-01T17:25:33.128Z,21.60
2019-05-01T17:28:02.755Z,21.60
2019-05-01T17:30:59.203Z,21.50
2019-05-01T17:33:26.711Z,21.50
2019-05-01T17:35:54.039Z,21.50
2019-05-01T17:38:21.363Z,21.40
2019-05-01T17:40:52.168Z,21.40
2019-05-01T17:43:19.416Z,21.40
2019-05-01T17:45:46.712Z,21.40
2019-05-01T17:48:14.002Z,21.40
2019-05-01T17:50:41.294Z,21.30
2019-05-01T17:53:08.707Z,21.40
2019-05-01T17:55:35.859Z,21.30
2019-05-01T17:58:03.258Z,21.20
2019-05-01T18:01:05.059Z,21.20
2019-05-01T18:03:57.676Z,21.00
2019-05-01T18:06:27.548Z,20.80
2019-05-01T18:09:02.956Z,20.60
2019-05-01T18:11:24.130Z,20.40
2019-05-01T18:13:51.323Z,20.10
2019-05-01T18:16:18.616Z,19.90
2019-05-01T18:18:45.916Z,19.70
2019-05-01T18:21:13.175Z,19.60
2019-05-01T18:24:09.541Z,19.30
2019-05-01T18:26:54.151Z,19.10
2019-05-01T18:29:35.523Z,18.90
2019-05-01T18:32:02.961Z,18.60
2019-05-01T18:34:33.717Z,18.30
2019-05-01T18:37:10.333Z,18.20
2019-05-01T18:39:38.823Z,18.00
2019-05-01T18:42:08.919Z,17.90
2019-05-01T18:44:36.219Z,17.80
2019-05-01T18:47:03.812Z,17.50
2019-05-01T18:49:31.207Z,17.50
2019-05-01T18:51:58.779Z,17.30
2019-05-01T18:54:30.475Z,17.10
2019-05-01T18:56:55.585Z,16.80
2019-05-01T18:59:22.991Z,16.70
2019-05-01T19:01:50.371Z,16.50
2019-05-01T19:04:18.560Z,16.30
2019-05-01T19:06:46.968Z,16.20
2019-05-01T19:09:15.423Z,16.00
2019-05-01T19:11:42.858Z,15.80
2019-05-01T19:14:10.560Z,15.50
2019-05-01T19:16:40.095Z,15.40
2019-05-01T19:19:07.220Z,15.40
2019-05-01T19:21:35.007Z,15.30
2019-05-01T19:24:04.401Z,15.10
2019-05-01T19:26:32.013Z,15.00
2019-05-01T19:28:59.810Z,14.90
2019-05-01T19:31:27.225Z,14.80
2019-05-01T19:33:54.606Z,14.70
2019-05-01T19:36:21.949Z,14.60
2019-05-01T19:38:49.331Z,14.50
2019-05-01T19:41:16.764Z,14.40
2019-05-01T19:43:44.223Z,14.40
2019-05-01T19:46:11.632Z,14.30
2019-05-01T19:48:39.092Z,14.20
2019-05-01T19:51:06.584Z,14.20
2019-05-01T19:53:33.947Z,14.00
2019-05-01T19:56:01.233Z,14.00
2019-05-01T19:58:28.720Z,13.90
2019-05-01T20:00:59.396Z,13.70
2019-05-01T20:03:30.560Z,13.70
2019-05-01T20:05:59.520Z,13.70
2019-05-01T20:08:25.749Z,13.70
2019-05-01T20:10:53.435Z,13.60
2019-05-01T20:13:20.806Z,13.50
2019-05-01T20:15:48.117Z,13.50
2019-05-01T20:18:15.405Z,13.50
2019-05-01T20:20:42.801Z,13.40
2019-05-01T20:23:10.136Z,13.40
2019-05-01T20:25:37.577Z,13.30
2019-05-01T20:28:04.862Z,13.30
2019-05-01T20:30:32.172Z,13.20
2019-05-01T20:33:02.176Z,13.20
2019-05-01T20:35:30.210Z,13.10
2019-05-01T20:37:57.863Z,13.10
2019-05-01T20:40:25.225Z,13.10
2019-05-01T20:42:52.801Z,13.00
2019-05-01T20:45:21.150Z,13.00
2019-05-01T20:47:48.565Z,12.90
2019-05-01T20:50:16.016Z,12.90
2019-05-01T20:52:43.452Z,12.80
2019-05-01T20:55:11.179Z,12.70
2019-05-01T20:57:40.894Z,12.70
2019-05-01T21:00:11.249Z,12.60
2019-05-01T21:02:38.982Z,12.50
2019-05-01T21:05:29.578Z,12.50
2019-05-01T21:08:05.066Z,12.40
2019-05-01T21:10:50.300Z,12.40
2019-05-01T21:13:10.680Z,12.30
2019-05-01T21:15:37.975Z,12.20
2019-05-01T21:18:05.271Z,12.10
2019-05-01T21:20:33.885Z,12.00
2019-05-01T21:23:05.724Z,11.90
2019-05-01T21:25:30.480Z,11.80
2019-05-01T21:27:57.804Z,11.60
2019-05-01T21:30:25.080Z,11.40
2019-05-01T21:32:54.112Z,11.30
2019-05-01T21:35:21.521Z,11.20
2019-05-01T21:37:48.888Z,11.10
2019-05-01T21:40:16.194Z,11.20
2019-05-01T21:42:47.285Z,11.20
2019-05-01T21:45:12.860Z,11.20
2019-05-01T21:47:40.373Z,11.20
2019-05-01T21:50:07.641Z,11.20
2019-05-01T21:52:34.931Z,11.20
2019-05-01T21:55:02.219Z,11.20
2019-05-01T21:57:32.279Z,11.10
2019-05-01T21:59:58.718Z,11.10
2019-05-01T22:02:25.995Z,11.00
2019-05-01T22:04:53.276Z,11.00
2019-05-01T22:07:23.827Z,11.10
2019-05-01T22:09:50.430Z,11.10
2019-05-01T22:12:18.971Z,11.00
2019-05-01T22:14:53.184Z,10.90
2019-05-01T22:17:32.163Z,10.80
2019-05-01T22:20:00.253Z,10.80
2019-05-01T22:22:58.900Z,10.80
2019-05-01T22:25:30.665Z,10.70
2019-05-01T22:28:06.964Z,10.70
2019-05-01T22:30:42.181Z,10.60
2019-05-01T22:33:07.378Z,10.60
2019-05-01T22:35:40.793Z,10.50
2019-05-01T22:38:08.082Z,10.40
2019-05-01T22:40:45.480Z,10.40
2019-05-01T22:43:12.823Z,10.20
2019-05-01T22:45:40.196Z,10.30
2019-05-01T22:48:07.468Z,10.50
2019-05-01T22:50:34.740Z,10.70
2019-05-01T22:53:02.020Z,10.90
2019-05-01T22:55:29.280Z,11.00
2019-05-01T22:57:56.527Z,11.00
2019-05-01T23:00:38.380Z,11.10
2019-05-01T23:03:08.020Z,11.00
2019-05-01T23:05:35.539Z,10.90
2019-05-01T23:08:02.840Z,10.70
2019-05-01T23:10:31.076Z,10.70
2019-05-01T23:12:58.417Z,10.60
2019-05-01T23:15:27.212Z,10.60
2019-05-01T23:17:54.608Z,10.60
2019-05-01T23:20:22.488Z,10.50
2019-05-01T23:22:49.732Z,10.50
2019-05-01T23:25:16.989Z,10.50
2019-05-01T23:27:44.235Z,10.50
2019-05-01T23:30:14.913Z,10.50
2019-05-01T23:32:42.163Z,10.40
2019-05-01T23:35:09.476Z,10.30
2019-05-01T23:37:36.756Z,10.30
2019-05-01T23:40:05.404Z,10.30
2019-05-01T23:42:32.663Z,10.20
2019-05-01T23:45:00.084Z,10.20
2019-05-01T23:47:27.358Z,10.20
2019-05-01T23:49:54.798Z,10.20
2019-05-01T23:52:22.054Z,10.10
2019-05-01T23:54:49.880Z,10.10
2019-05-01T23:57:18.836Z,10.00
2019-05-01T23:59:46.490Z,9.90
